Superior, Montana
Current Conditions -  °F | °C
As of 2:53 AM on Saturday 29 Nov 2014 (Local Time) from KMLP Reporting Station
Moderate Snow Moderate Snow  
Wind Chill: 22°   Ceiling: 400
Heat Index: 31°   Visibility: 0.5mi
Dew Point: 31°   Wind: 10mph
Humidity: 100%   Direction: 230°SW
Pressure: 29.21"   Gusts: 25mph
Location:  47.19°N, 114.89°W
Report Text: KMLP 290953Z AUTO 23009G22KT 200V270 1/2SM SN FZFG VV004 M01/M01 A2921 RMK AO2 PK WND 26032/0855 SLP852 P0008 T10061006
Loading
Personal Weather Stations






























Interactive Weather Map New forecast layout! Learn more

10-Day Weather Forecast

Advertisements
Track Severe Weather on mobile